createdAt,value
2023-02-11T00:01:21.749Z,72.53
2023-02-11T00:04:12.781Z,72.40
2023-02-11T00:07:08.751Z,72.39
2023-02-11T00:10:02.902Z,72.37
2023-02-11T00:12:55.797Z,72.47
2023-02-11T00:15:48.882Z,72.29
2023-02-11T00:18:44.704Z,72.22
2023-02-11T00:21:37.552Z,72.38
2023-02-11T00:24:32.091Z,72.48
2023-02-11T00:27:24.802Z,72.61
2023-02-11T00:30:17.835Z,72.76
2023-02-11T00:33:10.633Z,72.74
2023-02-11T00:36:08.171Z,72.88
2023-02-11T00:39:04.447Z,72.83
2023-02-11T00:41:57.177Z,72.87
2023-02-11T00:44:50.423Z,72.86
2023-02-11T00:47:36.448Z,73.02
2023-02-11T00:50:29.702Z,72.86
2023-02-11T00:53:22.439Z,72.66
2023-02-11T00:56:15.253Z,72.34
2023-02-11T00:59:08.264Z,72.31
2023-02-11T01:02:01.566Z,72.15
2023-02-11T01:04:54.406Z,71.96
2023-02-11T01:07:48.382Z,72.13
2023-02-11T01:10:41.449Z,72.02
2023-02-11T01:13:37.324Z,72.07
2023-02-11T01:16:30.246Z,72.17
2023-02-11T01:19:23.015Z,72.06
2023-02-11T01:22:15.839Z,72.30
2023-02-11T01:25:09.451Z,72.36
2023-02-11T01:28:03.169Z,72.39
2023-02-11T01:30:48.857Z,72.54
2023-02-11T01:33:42.000Z,72.55
2023-02-11T01:36:34.840Z,72.43
2023-02-11T01:39:28.011Z,72.31
2023-02-11T01:42:23.585Z,72.25
2023-02-11T01:45:54.936Z,72.23
2023-02-11T01:48:53.341Z,71.88
2023-02-11T01:51:49.903Z,71.58
2023-02-11T01:55:05.157Z,71.86
2023-02-11T01:58:02.421Z,71.89
2023-02-11T02:00:57.718Z,71.99
2023-02-11T02:03:54.016Z,71.95
2023-02-11T02:06:51.143Z,71.92
2023-02-11T02:09:57.737Z,72.19
2023-02-11T02:12:50.878Z,72.33
2023-02-11T02:15:37.602Z,72.15
2023-02-11T02:18:45.296Z,72.40
2023-02-11T02:22:10.526Z,72.33
2023-02-11T02:25:21.017Z,72.19
2023-02-11T02:28:39.096Z,71.85
2023-02-11T02:31:53.703Z,71.31
2023-02-11T02:34:52.470Z,71.00
2023-02-11T02:37:53.917Z,71.03
2023-02-11T02:40:55.880Z,70.75
2023-02-11T02:43:51.850Z,70.75
2023-02-11T02:46:38.464Z,70.97
2023-02-11T02:49:33.125Z,70.76
2023-02-11T02:52:40.643Z,70.91
2023-02-11T02:55:54.199Z,71.04
2023-02-11T02:59:22.179Z,71.24
2023-02-11T03:02:23.182Z,71.38
2023-02-11T03:05:31.499Z,71.32
2023-02-11T03:08:31.285Z,71.22
2023-02-11T03:11:25.900Z,71.19
2023-02-11T03:14:20.675Z,71.21
2023-02-11T03:17:15.569Z,71.32
2023-02-11T03:20:12.497Z,71.10
2023-02-11T03:23:06.256Z,70.92
2023-02-11T03:26:11.885Z,70.81
2023-02-11T03:29:15.668Z,70.70
2023-02-11T03:32:09.480Z,70.73
2023-02-11T03:35:05.659Z,70.97
2023-02-11T03:38:02.034Z,71.10
2023-02-11T03:40:57.061Z,71.39
2023-02-11T03:43:55.849Z,71.59
2023-02-11T03:46:52.972Z,71.62
2023-02-11T03:49:37.493Z,71.88
2023-02-11T03:52:30.706Z,71.92
2023-02-11T03:55:20.218Z,72.11
2023-02-11T03:58:13.517Z,72.18
2023-02-11T04:01:09.920Z,72.45
2023-02-11T04:04:02.749Z,72.48
2023-02-11T04:06:48.406Z,72.26
2023-02-11T04:09:41.737Z,72.24
2023-02-11T04:12:34.838Z,72.03
2023-02-11T04:15:28.118Z,72.00
2023-02-11T04:18:20.928Z,71.79
2023-02-11T04:21:01.075Z,71.78
2023-02-11T04:23:53.852Z,71.81
2023-02-11T04:26:46.836Z,71.90
2023-02-11T04:29:40.241Z,72.04
2023-02-11T04:32:33.386Z,72.08
2023-02-11T04:35:26.145Z,72.04
2023-02-11T04:38:19.024Z,72.16
2023-02-11T04:41:11.885Z,72.48
2023-02-11T04:44:04.886Z,72.49
2023-02-11T04:46:57.677Z,72.41
2023-02-11T04:49:50.476Z,72.39
2023-02-11T04:52:43.366Z,72.19
2023-02-11T04:55:36.539Z,72.06
2023-02-11T04:58:29.430Z,72.05
2023-02-11T05:01:22.338Z,71.68
2023-02-11T05:04:15.672Z,71.53
2023-02-11T05:07:08.564Z,71.57
2023-02-11T05:10:01.559Z,71.49
2023-02-11T05:12:56.028Z,71.59
2023-02-11T05:15:50.148Z,71.64
2023-02-11T05:18:44.538Z,71.65
2023-02-11T05:21:37.741Z,71.79
2023-02-11T05:24:30.634Z,71.95
2023-02-11T05:27:24.441Z,71.99
2023-02-11T05:30:17.913Z,71.82
2023-02-11T05:33:10.750Z,72.06
2023-02-11T05:36:06.077Z,72.08
2023-02-11T05:38:58.930Z,72.14
2023-02-11T05:41:51.815Z,72.09
2023-02-11T05:44:45.255Z,71.96
2023-02-11T05:47:30.621Z,71.68
2023-02-11T05:50:16.042Z,71.62
2023-02-11T05:53:08.891Z,71.39
2023-02-11T05:56:01.960Z,71.51
2023-02-11T05:58:54.900Z,71.67
2023-02-11T06:01:47.669Z,71.73
2023-02-11T06:04:40.592Z,71.76
2023-02-11T06:07:33.528Z,71.72
2023-02-11T06:10:26.273Z,71.92
2023-02-11T06:13:19.850Z,72.12
2023-02-11T06:16:12.711Z,72.25
2023-02-11T06:19:05.815Z,72.31
2023-02-11T06:21:58.772Z,72.34
2023-02-11T06:25:01.382Z,72.11
2023-02-11T06:27:54.742Z,72.02
2023-02-11T06:30:41.391Z,72.14
2023-02-11T06:33:34.616Z,71.89
2023-02-11T06:36:27.825Z,71.64
2023-02-11T06:39:20.733Z,71.42
2023-02-11T06:42:08.023Z,71.41
2023-02-11T06:44:54.191Z,71.10
2023-02-11T06:47:46.975Z,71.18
2023-02-11T06:50:39.734Z,71.07
2023-02-11T06:53:32.794Z,71.10
2023-02-11T06:56:28.235Z,70.78
2023-02-11T06:59:14.283Z,70.78
2023-02-11T07:02:07.223Z,70.79
2023-02-11T07:04:56.754Z,70.74
2023-02-11T07:07:49.676Z,70.53
2023-02-11T07:10:42.885Z,70.38
2023-02-11T07:13:36.496Z,70.13
2023-02-11T07:16:21.055Z,70.03
2023-02-11T07:19:14.229Z,69.82
2023-02-11T07:21:49.986Z,69.56
2023-02-11T07:24:25.070Z,69.23
2023-02-11T07:27:18.186Z,68.87
2023-02-11T07:30:16.583Z,68.62
2023-02-11T07:33:09.695Z,68.01
2023-02-11T07:36:05.356Z,68.08
2023-02-11T07:38:58.539Z,67.67
2023-02-11T07:41:47.918Z,67.31
2023-02-11T07:44:40.850Z,67.18
2023-02-11T07:47:35.781Z,66.89
2023-02-11T07:50:19.750Z,66.96
2023-02-11T07:53:11.710Z,66.82
2023-02-11T07:56:06.090Z,66.89
2023-02-11T07:58:51.782Z,66.65
2023-02-11T08:01:44.808Z,66.31
2023-02-11T08:04:38.289Z,66.29
2023-02-11T08:07:31.337Z,66.16
2023-02-11T08:10:27.359Z,65.92
2023-02-11T08:13:20.269Z,65.60
2023-02-11T08:16:21.641Z,65.04
2023-02-11T08:19:17.117Z,64.96
2023-02-11T08:22:10.061Z,64.95
2023-02-11T08:25:06.249Z,64.62
2023-02-11T08:27:57.886Z,64.61
2023-02-11T08:30:33.103Z,64.50
2023-02-11T08:33:16.057Z,64.67
2023-02-11T08:36:14.080Z,64.65
2023-02-11T08:39:22.502Z,64.47
2023-02-11T08:42:09.250Z,64.70
2023-02-11T08:45:02.255Z,63.88
2023-02-11T08:47:48.077Z,63.82
2023-02-11T08:50:28.199Z,64.05
2023-02-11T08:53:21.121Z,64.11
2023-02-11T08:55:55.847Z,64.04
2023-02-11T08:58:49.032Z,64.14
2023-02-11T09:01:43.623Z,64.01
2023-02-11T09:04:36.675Z,63.94
2023-02-11T09:07:32.878Z,63.78
2023-02-11T09:10:25.929Z,63.69
2023-02-11T09:13:21.566Z,63.83
2023-02-11T09:16:06.994Z,63.57
2023-02-11T09:19:02.365Z,63.42
2023-02-11T09:21:54.046Z,63.01
2023-02-11T09:24:37.027Z,62.87
2023-02-11T09:27:31.367Z,62.26
2023-02-11T09:30:24.954Z,61.53
2023-02-11T09:33:17.913Z,61.01
2023-02-11T09:36:12.039Z,60.61
2023-02-11T09:39:06.606Z,60.51
2023-02-11T09:42:22.001Z,60.29
2023-02-11T09:45:20.412Z,59.91
2023-02-11T09:48:06.173Z,59.33
2023-02-11T09:50:41.452Z,59.01
2023-02-11T09:53:29.929Z,59.00
2023-02-11T09:56:23.171Z,59.08
2023-02-11T09:59:17.755Z,58.75
2023-02-11T10:02:17.655Z,58.33
2023-02-11T10:05:35.194Z,58.61
2023-02-11T10:08:28.689Z,58.77
2023-02-11T10:11:32.088Z,58.62
2023-02-11T10:14:21.296Z,58.83
2023-02-11T10:17:22.735Z,57.93
2023-02-11T10:20:26.404Z,57.42
2023-02-11T10:23:22.508Z,57.53
2023-02-11T10:26:20.759Z,57.28
2023-02-11T10:29:00.901Z,56.95
2023-02-11T10:31:57.929Z,57.34
2023-02-11T10:34:52.091Z,57.49
2023-02-11T10:37:45.753Z,57.84
2023-02-11T10:40:39.361Z,58.36
2023-02-11T10:43:36.328Z,58.51
2023-02-11T10:46:33.578Z,58.89
2023-02-11T10:49:42.307Z,58.27
2023-02-11T10:52:35.146Z,58.30
2023-02-11T10:55:30.126Z,58.15
2023-02-11T10:58:33.295Z,58.01
2023-02-11T11:01:38.696Z,56.95
2023-02-11T11:04:45.116Z,56.64
2023-02-11T11:07:39.690Z,56.78
2023-02-11T11:10:44.618Z,56.54
2023-02-11T11:13:40.077Z,56.72
2023-02-11T11:16:28.349Z,57.03
2023-02-11T11:19:25.338Z,56.41
2023-02-11T11:22:24.898Z,55.98
2023-02-11T11:25:30.696Z,56.12
2023-02-11T11:28:26.544Z,55.97
2023-02-11T11:31:23.425Z,55.95
2023-02-11T11:34:31.036Z,55.63
2023-02-11T11:37:27.955Z,55.17
2023-02-11T11:40:29.143Z,55.14
2023-02-11T11:43:23.924Z,54.96
2023-02-11T11:46:07.801Z,55.17
2023-02-11T11:48:53.209Z,54.77
2023-02-11T11:51:43.552Z,54.56
2023-02-11T11:54:26.537Z,53.94
2023-02-11T11:57:24.380Z,53.31
2023-02-11T12:00:22.222Z,53.38
2023-02-11T12:03:29.293Z,53.47
2023-02-11T12:06:33.785Z,53.58
2023-02-11T12:09:34.013Z,54.31
2023-02-11T12:12:40.889Z,54.41
2023-02-11T12:15:36.480Z,54.36
2023-02-11T12:18:38.645Z,53.81
2023-02-11T12:21:55.484Z,54.10
2023-02-11T12:25:10.053Z,54.33
2023-02-11T12:28:09.061Z,54.02
2023-02-11T12:31:15.341Z,53.49
2023-02-11T12:34:27.263Z,54.19
2023-02-11T12:37:43.944Z,54.46
2023-02-11T12:40:26.647Z,54.55
2023-02-11T12:43:25.798Z,54.97
2023-02-11T12:46:43.523Z,55.76
2023-02-11T12:49:55.903Z,56.64
2023-02-11T12:53:19.210Z,57.02
2023-02-11T12:56:18.952Z,57.36
2023-02-11T12:59:18.755Z,57.84
2023-02-11T13:02:13.516Z,57.98
2023-02-11T13:05:19.995Z,58.31
2023-02-11T13:08:17.685Z,58.28
2023-02-11T13:11:15.165Z,58.39
2023-02-11T13:14:17.896Z,58.22
2023-02-11T13:17:21.293Z,58.23
2023-02-11T13:20:27.668Z,58.57
2023-02-11T13:23:24.582Z,58.79
2023-02-11T13:26:25.020Z,58.87
2023-02-11T13:29:33.346Z,59.22
2023-02-11T13:32:19.088Z,59.42
2023-02-11T13:35:06.082Z,59.54
2023-02-11T13:38:00.409Z,59.73
2023-02-11T13:41:04.482Z,60.11
2023-02-11T13:44:27.411Z,60.32
2023-02-11T13:47:43.122Z,60.85
2023-02-11T13:50:40.950Z,60.86
2023-02-11T13:53:45.739Z,61.32
2023-02-11T13:56:41.230Z,61.71
2023-02-11T13:59:51.500Z,61.98
2023-02-11T14:03:01.852Z,62.29
2023-02-11T14:06:30.774Z,62.76
2023-02-11T14:09:40.083Z,63.11
2023-02-11T14:12:36.224Z,63.66
2023-02-11T14:16:04.545Z,64.36
2023-02-11T14:19:04.567Z,65.35
2023-02-11T14:22:06.021Z,66.68
2023-02-11T14:25:02.193Z,67.42
2023-02-11T14:27:59.332Z,68.58
2023-02-11T14:31:05.179Z,69.65
2023-02-11T14:34:24.347Z,70.51
2023-02-11T14:37:33.097Z,71.32
2023-02-11T14:40:33.452Z,72.21
2023-02-11T14:43:30.704Z,73.11
2023-02-11T14:46:27.785Z,73.97
2023-02-11T14:49:29.782Z,74.39
2023-02-11T14:52:30.396Z,75.03
2023-02-11T14:55:34.650Z,75.94
2023-02-11T14:58:29.675Z,76.75
2023-02-11T15:01:35.429Z,77.51
2023-02-11T15:04:30.282Z,78.74
2023-02-11T15:07:23.652Z,79.34
2023-02-11T15:10:25.898Z,80.25
2023-02-11T15:13:27.303Z,80.87
2023-02-11T15:16:23.817Z,81.33
2023-02-11T15:19:25.736Z,81.69
2023-02-11T15:22:25.038Z,81.98
2023-02-11T15:25:20.040Z,82.33
2023-02-11T15:28:26.058Z,82.35
2023-02-11T15:31:21.166Z,82.62
2023-02-11T15:34:11.608Z,82.76
2023-02-11T15:36:54.731Z,83.47
2023-02-11T15:39:47.813Z,83.81
2023-02-11T15:42:52.595Z,84.09
2023-02-11T15:45:55.447Z,84.34
2023-02-11T15:48:44.127Z,84.80
2023-02-11T15:51:42.527Z,84.92
2023-02-11T15:54:34.674Z,85.22
2023-02-11T15:57:27.816Z,85.11
2023-02-11T16:00:23.500Z,85.19
2023-02-11T16:03:09.455Z,85.27
2023-02-11T16:06:24.145Z,85.39
2023-02-11T16:09:33.531Z,85.68
2023-02-11T16:12:29.353Z,85.84
2023-02-11T16:15:48.351Z,86.16
2023-02-11T16:18:52.033Z,86.21
2023-02-11T16:21:49.214Z,86.68
2023-02-11T16:24:42.920Z,86.78
2023-02-11T16:27:40.073Z,86.80
2023-02-11T16:30:38.454Z,86.69
2023-02-11T16:33:31.746Z,86.58
2023-02-11T16:36:18.616Z,86.34
2023-02-11T16:39:12.068Z,86.44
2023-02-11T16:42:07.438Z,86.27
2023-02-11T16:45:00.358Z,86.28
2023-02-11T16:47:44.480Z,86.01
2023-02-11T16:50:38.034Z,86.04
2023-02-11T16:53:26.616Z,86.18
2023-02-11T16:56:19.742Z,86.46
2023-02-11T16:59:13.186Z,86.51
2023-02-11T17:02:00.681Z,86.74
2023-02-11T17:04:48.204Z,87.06
2023-02-11T17:07:41.296Z,86.95
2023-02-11T17:10:37.892Z,87.00
2023-02-11T17:13:30.861Z,87.05
2023-02-11T17:16:27.782Z,86.98
2023-02-11T17:19:22.302Z,86.83
2023-02-11T17:22:15.361Z,86.73
2023-02-11T17:25:09.453Z,86.63
2023-02-11T17:28:02.437Z,86.56
2023-02-11T17:30:55.439Z,86.81
2023-02-11T17:33:48.792Z,86.78
2023-02-11T17:36:42.077Z,87.02
2023-02-11T17:39:35.110Z,87.26
2023-02-11T17:42:29.450Z,87.52
2023-02-11T17:45:22.622Z,87.65
2023-02-11T17:48:16.075Z,87.43
2023-02-11T17:51:00.552Z,87.40
2023-02-11T17:53:43.420Z,87.34
2023-02-11T17:56:26.391Z,87.32
2023-02-11T17:59:19.807Z,86.97
2023-02-11T18:02:14.405Z,86.80
2023-02-11T18:05:08.087Z,86.67
2023-02-11T18:08:01.384Z,86.61
2023-02-11T18:10:54.319Z,86.59
2023-02-11T18:13:54.832Z,86.73
2023-02-11T18:16:50.649Z,86.74
2023-02-11T18:19:43.643Z,86.62
2023-02-11T18:22:40.219Z,86.64
2023-02-11T18:25:33.504Z,86.33
2023-02-11T18:28:26.641Z,86.55
2023-02-11T18:31:22.031Z,86.21
2023-02-11T18:34:17.255Z,86.31
2023-02-11T18:37:10.413Z,86.03
2023-02-11T18:39:47.338Z,86.10
2023-02-11T18:42:40.372Z,86.24
2023-02-11T18:45:34.215Z,85.99
2023-02-11T18:48:09.822Z,86.06
2023-02-11T18:51:02.617Z,86.14
2023-02-11T18:53:55.908Z,86.09
2023-02-11T18:56:50.143Z,86.09
2023-02-11T18:59:28.041Z,86.26
2023-02-11T19:02:22.075Z,86.48
2023-02-11T19:05:15.791Z,86.79
2023-02-11T19:08:10.269Z,87.10
2023-02-11T19:11:06.842Z,89.06
2023-02-11T19:13:59.626Z,91.04
2023-02-11T19:16:57.458Z,91.38
2023-02-11T19:19:50.563Z,91.39
2023-02-11T19:22:44.958Z,90.97
2023-02-11T19:25:37.946Z,90.49
2023-02-11T19:28:33.202Z,90.33
2023-02-11T19:31:16.449Z,90.19
2023-02-11T19:34:09.453Z,89.95
2023-02-11T19:37:02.296Z,89.76
2023-02-11T19:39:55.379Z,89.64
2023-02-11T19:42:48.365Z,89.83
2023-02-11T19:45:41.561Z,90.00
2023-02-11T19:48:27.142Z,89.84
2023-02-11T19:51:20.729Z,89.91
2023-02-11T19:54:13.617Z,90.08
2023-02-11T19:57:06.833Z,90.34
2023-02-11T20:00:01.503Z,90.36
2023-02-11T20:02:54.444Z,90.09
2023-02-11T20:05:40.361Z,89.98
2023-02-11T20:08:33.548Z,90.03
2023-02-11T20:11:28.254Z,90.12
2023-02-11T20:14:12.921Z,90.00
2023-02-11T20:17:08.158Z,89.94
2023-02-11T20:20:01.360Z,89.79
2023-02-11T20:22:36.792Z,89.72
2023-02-11T20:25:17.850Z,89.81
2023-02-11T20:27:54.088Z,89.93
2023-02-11T20:30:34.741Z,89.89
2023-02-11T20:33:28.594Z,90.13
2023-02-11T20:36:16.697Z,90.09
2023-02-11T20:39:17.245Z,90.02
2023-02-11T20:42:14.431Z,90.04
2023-02-11T20:45:09.337Z,89.83
2023-02-11T20:48:02.211Z,89.92
2023-02-11T20:50:54.223Z,89.98
2023-02-11T20:53:50.034Z,89.79
2023-02-11T20:56:45.502Z,89.64
2023-02-11T20:59:40.006Z,89.62
2023-02-11T21:02:33.039Z,89.76
2023-02-11T21:05:25.863Z,89.73
2023-02-11T21:08:19.366Z,89.57
2023-02-11T21:11:12.547Z,89.34
2023-02-11T21:14:06.065Z,89.39
2023-02-11T21:16:59.345Z,89.21
2023-02-11T21:19:52.828Z,89.66
2023-02-11T21:22:38.436Z,89.88
2023-02-11T21:25:32.618Z,89.88
2023-02-11T21:28:27.382Z,90.46
2023-02-11T21:31:25.115Z,90.63
2023-02-11T21:34:17.991Z,90.56
2023-02-11T21:37:09.516Z,90.46
2023-02-11T21:40:02.427Z,90.38
2023-02-11T21:42:56.865Z,90.52
2023-02-11T21:45:51.712Z,90.30
2023-02-11T21:48:44.735Z,90.38
2023-02-11T21:51:38.085Z,90.35
2023-02-11T21:54:33.794Z,90.33
2023-02-11T21:57:26.559Z,90.22
2023-02-11T22:00:21.209Z,90.31
2023-02-11T22:03:15.029Z,90.20
2023-02-11T22:06:01.597Z,90.15
2023-02-11T22:08:55.105Z,90.15
2023-02-11T22:11:49.372Z,90.32
2023-02-11T22:14:42.203Z,90.39
2023-02-11T22:17:36.277Z,90.64
2023-02-11T22:20:29.312Z,90.51
2023-02-11T22:23:22.623Z,90.46
2023-02-11T22:26:17.651Z,90.25
2023-02-11T22:29:10.916Z,90.29
2023-02-11T22:32:03.833Z,90.23
2023-02-11T22:34:46.004Z,90.12
2023-02-11T22:37:38.808Z,90.15
2023-02-11T22:40:31.759Z,90.37
2023-02-11T22:43:24.755Z,90.52
2023-02-11T22:46:20.573Z,90.64
2023-02-11T22:49:15.707Z,90.93
2023-02-11T22:52:08.752Z,90.84
2023-02-11T22:55:01.656Z,90.77
2023-02-11T22:57:54.430Z,90.76
2023-02-11T23:00:47.275Z,90.72
2023-02-11T23:03:40.486Z,90.70
2023-02-11T23:06:34.396Z,90.89
2023-02-11T23:09:28.363Z,90.80
2023-02-11T23:12:21.426Z,91.09
2023-02-11T23:15:15.312Z,91.39
2023-02-11T23:18:08.696Z,91.36
2023-02-11T23:21:06.813Z,91.40
2023-02-11T23:23:59.010Z,91.82
2023-02-11T23:26:51.456Z,91.71
2023-02-11T23:29:44.293Z,91.69
2023-02-11T23:32:41.019Z,91.89
2023-02-11T23:35:34.189Z,92.03
2023-02-11T23:38:28.815Z,92.26
2023-02-11T23:41:22.237Z,92.33
2023-02-11T23:44:17.806Z,92.47
2023-02-11T23:47:10.628Z,92.31
2023-02-11T23:50:05.184Z,92.24
2023-02-11T23:52:50.961Z,92.11
2023-02-11T23:55:45.806Z,92.10
2023-02-11T23:58:39.030Z,92.38
